createdAt,value
2023-03-28T00:00:11.045Z,2.90
2023-03-28T00:01:13.615Z,2.91
2023-03-28T00:02:15.709Z,2.89
2023-03-28T00:03:22.837Z,2.86
2023-03-28T00:04:25.193Z,2.81
2023-03-28T00:05:28.304Z,2.77
2023-03-28T00:06:31.796Z,2.83
2023-03-28T00:07:33.831Z,2.88
2023-03-28T00:08:39.729Z,2.95
2023-03-28T00:09:41.911Z,2.99
2023-03-28T00:10:44.976Z,3.00
2023-03-28T00:11:47.513Z,2.97
2023-03-28T00:12:49.585Z,2.96
2023-03-28T00:13:58.128Z,2.96
2023-03-28T00:15:01.211Z,2.91
2023-03-28T00:16:09.561Z,2.76
2023-03-28T00:17:11.552Z,2.70
2023-03-28T00:18:13.607Z,2.71
2023-03-28T00:19:19.062Z,2.64
2023-03-28T00:20:21.297Z,2.58
2023-03-28T00:21:29.518Z,2.56
2023-03-28T00:22:32.167Z,2.57
2023-03-28T00:23:36.308Z,2.57
2023-03-28T00:24:39.144Z,2.62
2023-03-28T00:25:42.205Z,2.64
2023-03-28T00:26:45.575Z,2.58
2023-03-28T00:27:47.506Z,2.65
2023-03-28T00:28:49.442Z,2.71
2023-03-28T00:29:51.774Z,2.77
2023-03-28T00:30:53.769Z,2.75
2023-03-28T00:31:55.873Z,2.58
2023-03-28T00:32:57.858Z,2.53
2023-03-28T00:33:59.817Z,2.54
2023-03-28T00:35:01.812Z,2.52
2023-03-28T00:36:04.262Z,2.50
2023-03-28T00:37:06.182Z,2.52
2023-03-28T00:38:08.127Z,2.53
2023-03-28T00:39:10.881Z,2.52
2023-03-28T00:40:14.143Z,2.51
2023-03-28T00:41:18.767Z,2.51
2023-03-28T00:42:23.109Z,2.47
2023-03-28T00:43:46.255Z,2.47
2023-03-28T00:44:54.601Z,2.42
2023-03-28T00:46:06.520Z,2.47
2023-03-28T00:47:26.580Z,2.46
2023-03-28T00:48:28.699Z,2.55
2023-03-28T00:49:30.757Z,2.63
2023-03-28T00:50:39.753Z,2.65
2023-03-28T00:51:51.066Z,2.65
2023-03-28T00:53:02.589Z,2.63
2023-03-28T00:54:08.099Z,2.60
2023-03-28T00:55:19.154Z,2.63
2023-03-28T00:56:23.606Z,2.65
2023-03-28T00:57:26.795Z,2.62
2023-03-28T00:58:34.030Z,2.58
2023-03-28T00:59:37.910Z,2.38
2023-03-28T01:00:47.320Z,2.31
2023-03-28T01:01:49.401Z,2.16
2023-03-28T01:02:57.290Z,2.14
2023-03-28T01:04:03.325Z,2.11
2023-03-28T01:05:06.348Z,2.14
2023-03-28T01:06:09.722Z,2.09
2023-03-28T01:07:11.762Z,1.95
2023-03-28T01:08:20.898Z,1.98
2023-03-28T01:09:27.356Z,2.07
2023-03-28T01:10:31.684Z,2.07
2023-03-28T01:11:37.140Z,2.14
2023-03-28T01:12:42.381Z,2.13
2023-03-28T01:13:51.184Z,2.05
2023-03-28T01:14:53.872Z,2.06
2023-03-28T01:15:56.705Z,2.07
2023-03-28T01:16:58.674Z,2.10
2023-03-28T01:18:10.868Z,2.14
2023-03-28T01:19:36.382Z,2.09
2023-03-28T01:21:09.701Z,2.08
2023-03-28T01:22:36.159Z,2.12
2023-03-28T01:24:14.977Z,2.13
2023-03-28T01:25:55.716Z,2.10
2023-03-28T01:27:11.670Z,2.09
2023-03-28T01:28:44.768Z,2.03
2023-03-28T01:30:11.281Z,1.97
2023-03-28T01:31:16.444Z,1.95
2023-03-28T01:32:21.018Z,1.97
2023-03-28T01:33:50.185Z,1.94
2023-03-28T01:35:48.566Z,1.99
2023-03-28T01:36:59.800Z,2.05
2023-03-28T01:38:28.093Z,2.10
2023-03-28T01:39:57.347Z,2.13
2023-03-28T01:41:20.254Z,2.12
2023-03-28T01:43:00.841Z,2.22
2023-03-28T01:44:17.760Z,2.18
2023-03-28T01:46:01.105Z,2.12
2023-03-28T01:47:30.681Z,2.15
2023-03-28T01:49:01.339Z,2.19
2023-03-28T01:50:23.524Z,2.24
2023-03-28T01:51:31.217Z,2.25
2023-03-28T01:52:39.040Z,2.26
2023-03-28T01:53:56.438Z,2.22
2023-03-28T01:55:24.549Z,2.19
2023-03-28T01:56:39.859Z,2.22
2023-03-28T01:57:53.276Z,2.15
2023-03-28T01:59:04.523Z,2.11
2023-03-28T02:00:13.210Z,2.17
2023-03-28T02:01:23.306Z,2.16
2023-03-28T02:02:39.625Z,2.27
2023-03-28T02:03:48.121Z,2.27
2023-03-28T02:04:52.626Z,2.33
2023-03-28T02:06:04.597Z,2.36
2023-03-28T02:07:09.278Z,2.35
2023-03-28T02:08:14.172Z,2.34
2023-03-28T02:09:20.142Z,2.34
2023-03-28T02:10:26.362Z,2.33
2023-03-28T02:11:31.621Z,2.29
2023-03-28T02:12:41.703Z,2.32
2023-03-28T02:13:51.519Z,2.36
2023-03-28T02:14:57.066Z,2.36
2023-03-28T02:16:02.745Z,2.26
2023-03-28T02:17:16.143Z,2.29
2023-03-28T02:18:24.247Z,2.22
2023-03-28T02:19:27.244Z,2.17
2023-03-28T02:20:33.835Z,2.18
2023-03-28T02:21:51.701Z,2.27
2023-03-28T02:23:03.311Z,2.34
2023-03-28T02:24:05.935Z,2.35
2023-03-28T02:25:08.631Z,2.37
2023-03-28T02:26:12.589Z,2.36
2023-03-28T02:27:14.609Z,2.36
2023-03-28T02:28:19.925Z,2.35
2023-03-28T02:29:23.008Z,2.32
2023-03-28T02:30:25.316Z,2.28
2023-03-28T02:31:27.463Z,2.29
2023-03-28T02:32:34.257Z,2.26
2023-03-28T02:33:48.678Z,2.27
2023-03-28T02:34:53.821Z,2.19
2023-03-28T02:36:09.292Z,2.19
2023-03-28T02:37:36.505Z,2.25
2023-03-28T02:38:56.664Z,2.26
2023-03-28T02:40:32.546Z,2.30
2023-03-28T02:41:52.539Z,2.31
2023-03-28T02:43:10.073Z,2.33
2023-03-28T02:44:38.905Z,2.29
2023-03-28T02:45:55.751Z,2.25
2023-03-28T02:47:13.056Z,2.26
2023-03-28T02:48:17.862Z,2.25
2023-03-28T02:49:29.934Z,2.24
2023-03-28T02:50:45.189Z,2.31
2023-03-28T02:51:51.768Z,2.34
2023-03-28T02:53:04.641Z,2.37
2023-03-28T02:54:12.182Z,2.36
2023-03-28T02:55:19.686Z,2.38
2023-03-28T02:56:38.816Z,2.32
2023-03-28T02:57:54.001Z,2.26
2023-03-28T02:59:04.131Z,2.28
2023-03-28T03:00:13.950Z,2.33
2023-03-28T03:01:16.132Z,2.42
2023-03-28T03:02:21.849Z,2.40
2023-03-28T03:03:24.213Z,2.42
2023-03-28T03:04:26.188Z,2.40
2023-03-28T03:05:28.150Z,2.40
2023-03-28T03:06:30.166Z,2.35
2023-03-28T03:07:32.854Z,2.34
2023-03-28T03:08:35.015Z,2.26
2023-03-28T03:09:36.979Z,2.26
2023-03-28T03:10:38.992Z,2.31
2023-03-28T03:11:41.078Z,2.31
2023-03-28T03:12:43.751Z,2.25
2023-03-28T03:13:45.892Z,2.21
2023-03-28T03:14:54.990Z,2.24
2023-03-28T03:15:57.109Z,2.30
2023-03-28T03:16:59.596Z,2.33
2023-03-28T03:18:01.562Z,2.36
2023-03-28T03:19:03.607Z,2.35
2023-03-28T03:20:07.640Z,2.36
2023-03-28T03:21:09.689Z,2.28
2023-03-28T03:22:11.948Z,2.28
2023-03-28T03:23:23.228Z,2.32
2023-03-28T03:24:28.777Z,2.30
2023-03-28T03:25:31.524Z,2.32
2023-03-28T03:26:33.521Z,2.32
2023-03-28T03:27:37.534Z,2.32
2023-03-28T03:28:39.967Z,2.32
2023-03-28T03:29:41.851Z,2.35
2023-03-28T03:30:43.997Z,2.32
2023-03-28T03:31:46.568Z,2.31
2023-03-28T03:32:48.615Z,2.32
2023-03-28T03:33:50.708Z,2.33
2023-03-28T03:34:52.893Z,2.29
2023-03-28T03:35:54.932Z,2.27
2023-03-28T03:36:56.871Z,2.28
2023-03-28T03:37:59.001Z,2.33
2023-03-28T03:39:01.105Z,2.37
2023-03-28T03:40:06.037Z,2.41
2023-03-28T03:41:08.024Z,2.38
2023-03-28T03:42:11.196Z,2.35
2023-03-28T03:43:13.183Z,2.37
2023-03-28T03:44:15.211Z,2.33
2023-03-28T03:45:17.605Z,2.22
2023-03-28T03:46:20.112Z,2.23
2023-03-28T03:47:21.999Z,2.29
2023-03-28T03:48:23.994Z,2.30
2023-03-28T03:49:26.028Z,2.35
2023-03-28T03:50:28.019Z,2.38
2023-03-28T03:51:30.037Z,2.42
2023-03-28T03:52:32.056Z,2.41
2023-03-28T03:53:35.614Z,2.40
2023-03-28T03:54:38.305Z,2.26
2023-03-28T03:55:41.454Z,2.30
2023-03-28T03:56:43.388Z,2.37
2023-03-28T03:57:45.727Z,2.40
2023-03-28T03:58:47.720Z,2.39
2023-03-28T03:59:49.817Z,2.40
2023-03-28T04:00:52.370Z,2.38
2023-03-28T04:01:56.036Z,2.34
2023-03-28T04:02:58.329Z,2.33
2023-03-28T04:04:00.444Z,2.23
2023-03-28T04:05:02.587Z,2.18
2023-03-28T04:06:05.434Z,2.23
2023-03-28T04:07:07.609Z,2.20
2023-03-28T04:08:09.617Z,2.24
2023-03-28T04:09:11.891Z,2.30
2023-03-28T04:10:13.908Z,2.31
2023-03-28T04:11:16.050Z,2.26
2023-03-28T04:12:18.892Z,2.25
2023-03-28T04:13:21.146Z,2.25
2023-03-28T04:14:23.247Z,2.25
2023-03-28T04:15:25.369Z,2.22
2023-03-28T04:16:27.748Z,2.07
2023-03-28T04:17:44.287Z,2.06
2023-03-28T04:18:51.101Z,2.03
2023-03-28T04:19:53.264Z,2.00
2023-03-28T04:20:58.139Z,2.01
2023-03-28T04:22:00.165Z,1.97
2023-03-28T04:23:02.276Z,1.98
2023-03-28T04:24:04.645Z,2.00
2023-03-28T04:25:07.389Z,2.03
2023-03-28T04:26:10.134Z,2.05
2023-03-28T04:27:12.446Z,2.06
2023-03-28T04:28:16.455Z,2.09
2023-03-28T04:29:18.499Z,2.11
2023-03-28T04:30:21.856Z,2.12
2023-03-28T04:31:29.879Z,2.15
2023-03-28T04:32:36.215Z,2.12
2023-03-28T04:33:38.155Z,2.10
2023-03-28T04:34:40.200Z,2.09
2023-03-28T04:35:42.369Z,2.04
2023-03-28T04:36:45.300Z,2.07
2023-03-28T04:37:47.676Z,2.10
2023-03-28T04:38:49.478Z,2.07
2023-03-28T04:39:54.365Z,2.07
2023-03-28T04:40:58.303Z,1.98
2023-03-28T04:42:02.275Z,1.94
2023-03-28T04:43:04.343Z,1.92
2023-03-28T04:44:06.602Z,1.88
2023-03-28T04:45:09.693Z,1.88
2023-03-28T04:46:11.846Z,1.88
2023-03-28T04:47:14.081Z,1.92
2023-03-28T04:48:16.198Z,1.96
2023-03-28T04:49:18.391Z,1.97
2023-03-28T04:50:20.559Z,1.98
2023-03-28T04:51:22.844Z,1.98
2023-03-28T04:52:25.606Z,2.01
2023-03-28T04:53:27.751Z,2.04
2023-03-28T04:54:29.770Z,1.99
2023-03-28T04:55:31.824Z,1.99
2023-03-28T04:56:33.821Z,1.97
2023-03-28T04:57:38.483Z,2.05
2023-03-28T04:58:41.900Z,2.08
2023-03-28T04:59:44.486Z,2.05
2023-03-28T05:00:46.837Z,2.09
2023-03-28T05:01:51.803Z,2.13
2023-03-28T05:03:00.430Z,2.11
2023-03-28T05:04:02.505Z,2.08
2023-03-28T05:05:04.753Z,2.05
2023-03-28T05:06:07.794Z,2.06
2023-03-28T05:07:10.027Z,2.05
2023-03-28T05:08:16.716Z,2.07
2023-03-28T05:09:18.963Z,2.03
2023-03-28T05:10:20.981Z,2.05
2023-03-28T05:11:22.917Z,2.10
2023-03-28T05:12:24.896Z,2.13
2023-03-28T05:13:27.218Z,2.18
2023-03-28T05:14:29.181Z,2.21
2023-03-28T05:15:31.480Z,2.17
2023-03-28T05:16:33.597Z,2.18
2023-03-28T05:17:35.587Z,2.15
2023-03-28T05:18:37.660Z,2.12
2023-03-28T05:19:39.734Z,2.12
2023-03-28T05:20:42.282Z,2.08
2023-03-28T05:21:44.264Z,2.12
2023-03-28T05:22:46.432Z,2.06
2023-03-28T05:23:52.189Z,2.10
2023-03-28T05:24:54.823Z,2.06
2023-03-28T05:25:59.210Z,2.03
2023-03-28T05:27:01.202Z,2.00
2023-03-28T05:28:04.914Z,2.03
2023-03-28T05:29:06.964Z,2.06
2023-03-28T05:30:10.599Z,2.10
2023-03-28T05:31:13.206Z,2.13
2023-03-28T05:32:15.167Z,2.11
2023-03-28T05:33:18.084Z,2.05
2023-03-28T05:34:20.175Z,2.08
2023-03-28T05:35:22.342Z,2.09
2023-03-28T05:36:24.644Z,2.13
2023-03-28T05:37:28.636Z,2.14
2023-03-28T05:38:33.622Z,2.17
2023-03-28T05:39:36.095Z,2.20
2023-03-28T05:40:37.938Z,2.18
2023-03-28T05:41:39.910Z,2.17
2023-03-28T05:42:42.051Z,2.14
2023-03-28T05:43:44.121Z,2.16
2023-03-28T05:44:46.294Z,2.15
2023-03-28T05:45:48.345Z,2.15
2023-03-28T05:46:50.368Z,2.13
2023-03-28T05:47:55.948Z,2.13
2023-03-28T05:48:58.026Z,2.15
2023-03-28T05:50:00.110Z,2.11
2023-03-28T05:51:02.349Z,2.08
2023-03-28T05:52:04.464Z,2.08
2023-03-28T05:53:07.104Z,2.08
2023-03-28T05:54:09.053Z,2.08
2023-03-28T05:55:11.163Z,2.01
2023-03-28T05:56:13.272Z,2.06
2023-03-28T05:57:15.292Z,2.09
2023-03-28T05:58:17.772Z,2.06
2023-03-28T05:59:20.370Z,2.09
2023-03-28T06:00:23.730Z,2.12
2023-03-28T06:01:29.073Z,2.14
2023-03-28T06:02:33.784Z,2.18
2023-03-28T06:03:40.537Z,2.20
2023-03-28T06:04:43.863Z,2.24
2023-03-28T06:05:46.229Z,2.23
2023-03-28T06:06:49.336Z,2.26
2023-03-28T06:07:51.470Z,2.28
2023-03-28T06:08:53.417Z,2.24
2023-03-28T06:09:55.513Z,2.25
2023-03-28T06:11:02.677Z,2.24
2023-03-28T06:12:06.367Z,2.19
2023-03-28T06:13:08.291Z,2.16
2023-03-28T06:14:10.879Z,2.06
2023-03-28T06:15:12.998Z,2.09
2023-03-28T06:16:15.127Z,2.17
2023-03-28T06:17:17.383Z,2.16
2023-03-28T06:18:19.446Z,2.12
2023-03-28T06:19:21.583Z,2.14
2023-03-28T06:20:23.960Z,2.18
2023-03-28T06:21:26.108Z,2.20
2023-03-28T06:22:28.235Z,2.18
2023-03-28T06:23:30.237Z,2.20
2023-03-28T06:24:32.291Z,2.22
2023-03-28T06:25:34.297Z,2.27
2023-03-28T06:26:36.756Z,2.24
2023-03-28T06:27:38.658Z,2.21
2023-03-28T06:28:40.786Z,2.15
2023-03-28T06:29:42.742Z,2.16
2023-03-28T06:30:49.276Z,2.16
2023-03-28T06:31:51.514Z,2.22
2023-03-28T06:32:53.587Z,2.25
2023-03-28T06:33:55.684Z,2.26
2023-03-28T06:34:57.614Z,2.23
2023-03-28T06:35:59.681Z,2.25
2023-03-28T06:37:02.296Z,2.27
2023-03-28T06:38:04.342Z,2.34
2023-03-28T06:39:06.438Z,2.29
2023-03-28T06:40:09.763Z,2.25
2023-03-28T06:41:12.022Z,2.31
2023-03-28T06:42:14.178Z,2.37
2023-03-28T06:43:16.289Z,2.42
2023-03-28T06:44:18.330Z,2.40
2023-03-28T06:45:20.422Z,2.45
2023-03-28T06:46:22.557Z,2.47
2023-03-28T06:47:24.812Z,2.46
2023-03-28T06:48:33.108Z,2.47
2023-03-28T06:49:36.756Z,2.42
2023-03-28T06:50:38.571Z,2.45
2023-03-28T06:51:40.666Z,2.51
2023-03-28T06:52:42.703Z,2.60
2023-03-28T06:53:44.620Z,2.65
2023-03-28T06:54:48.453Z,2.65
2023-03-28T06:55:51.510Z,2.63
2023-03-28T06:56:53.549Z,2.66
2023-03-28T06:57:55.687Z,2.70
2023-03-28T06:58:57.761Z,2.68
2023-03-28T06:59:59.774Z,2.64
2023-03-28T07:01:02.573Z,2.64
2023-03-28T07:02:05.081Z,2.69
2023-03-28T07:03:07.178Z,2.70
2023-03-28T07:04:09.465Z,2.70
2023-03-28T07:05:11.794Z,2.69
2023-03-28T07:06:13.912Z,2.70
2023-03-28T07:07:16.088Z,2.62
2023-03-28T07:08:18.570Z,2.54
2023-03-28T07:09:20.474Z,2.57
2023-03-28T07:10:23.233Z,2.62
2023-03-28T07:11:25.307Z,2.64
2023-03-28T07:12:27.444Z,2.62
2023-03-28T07:13:29.623Z,2.52
2023-03-28T07:14:31.774Z,2.58
2023-03-28T07:15:34.164Z,2.60
2023-03-28T07:16:36.166Z,2.61
2023-03-28T07:17:38.376Z,2.60
2023-03-28T07:18:41.971Z,2.54
2023-03-28T07:19:45.861Z,2.50
2023-03-28T07:20:54.837Z,2.54
2023-03-28T07:22:03.789Z,2.55
2023-03-28T07:23:06.150Z,2.57
2023-03-28T07:24:08.528Z,2.56
2023-03-28T07:25:10.853Z,2.55
2023-03-28T07:26:15.013Z,2.53
2023-03-28T07:27:17.341Z,2.56
2023-03-28T07:28:19.613Z,2.59
2023-03-28T07:29:21.918Z,2.57
2023-03-28T07:30:23.968Z,2.56
2023-03-28T07:31:26.046Z,2.65
2023-03-28T07:32:38.733Z,2.69
2023-03-28T07:33:45.132Z,2.69
2023-03-28T07:34:47.184Z,2.65
2023-03-28T07:35:49.354Z,2.69
2023-03-28T07:36:52.111Z,2.73
2023-03-28T07:37:54.277Z,2.79
2023-03-28T07:38:56.476Z,2.87
2023-03-28T07:39:58.613Z,2.94
2023-03-28T07:41:01.881Z,2.95
2023-03-28T07:42:04.256Z,2.99
2023-03-28T07:43:06.223Z,2.96
2023-03-28T07:44:08.495Z,2.94
2023-03-28T07:45:10.886Z,2.92
2023-03-28T07:46:14.592Z,2.87
2023-03-28T07:47:18.256Z,2.79
2023-03-28T07:48:20.062Z,2.78
2023-03-28T07:49:22.062Z,2.83
2023-03-28T07:50:24.942Z,2.82
2023-03-28T07:51:27.202Z,2.79
2023-03-28T07:52:29.856Z,2.83
2023-03-28T07:53:32.151Z,2.83
2023-03-28T07:54:34.744Z,2.86
2023-03-28T07:56:45.311Z,2.86
2023-03-28T07:57:47.290Z,2.80
2023-03-28T07:58:49.393Z,2.80
2023-03-28T07:59:51.653Z,2.79
2023-03-28T08:00:53.924Z,2.67
2023-03-28T08:01:56.267Z,2.64
2023-03-28T08:02:58.455Z,2.56
2023-03-28T08:04:01.230Z,2.58
2023-03-28T08:05:03.568Z,2.62
2023-03-28T08:06:20.053Z,2.59
2023-03-28T08:07:30.198Z,2.60
2023-03-28T08:08:33.205Z,2.62
2023-03-28T08:09:35.310Z,2.57
2023-03-28T08:10:37.462Z,2.51
2023-03-28T08:11:40.708Z,2.48
2023-03-28T08:12:43.090Z,2.46
2023-03-28T08:13:44.991Z,2.45
2023-03-28T08:14:47.084Z,2.34
2023-03-28T08:15:54.396Z,2.31
2023-03-28T08:16:57.031Z,2.20
2023-03-28T08:17:58.934Z,2.17
2023-03-28T08:19:10.816Z,2.19
2023-03-28T08:20:14.203Z,2.25
2023-03-28T08:21:16.365Z,2.23
2023-03-28T08:22:18.375Z,2.25
2023-03-28T08:23:20.901Z,2.25
2023-03-28T08:24:34.960Z,2.22
2023-03-28T08:25:37.975Z,2.12
2023-03-28T08:26:39.965Z,2.14
2023-03-28T08:27:42.004Z,2.16
2023-03-28T08:28:44.235Z,2.18
2023-03-28T08:29:46.249Z,2.28
2023-03-28T08:30:48.693Z,2.29
2023-03-28T08:31:50.567Z,2.25
2023-03-28T08:32:52.663Z,2.30
2023-03-28T08:33:56.829Z,2.37
2023-03-28T08:34:58.846Z,2.44
2023-03-28T08:36:01.062Z,2.46
2023-03-28T08:37:03.987Z,2.49
2023-03-28T08:38:10.466Z,2.54
2023-03-28T08:39:13.465Z,2.62
2023-03-28T08:40:19.367Z,2.66
2023-03-28T08:41:45.100Z,2.72
2023-03-28T08:43:09.689Z,2.75
2023-03-28T08:44:48.531Z,2.74
2023-03-28T08:46:00.294Z,2.80
2023-03-28T08:47:14.125Z,2.78
2023-03-28T08:48:27.585Z,2.79
2023-03-28T08:49:34.686Z,2.77
2023-03-28T08:50:50.830Z,2.80
2023-03-28T08:51:58.745Z,2.89
2023-03-28T08:53:02.278Z,2.91
2023-03-28T08:54:43.684Z,2.97
2023-03-28T08:55:48.113Z,2.95
2023-03-28T08:56:53.069Z,2.91
2023-03-28T08:57:56.384Z,2.94
2023-03-28T08:59:07.705Z,2.96
2023-03-28T09:00:15.648Z,2.96
2023-03-28T09:01:22.368Z,3.02
2023-03-28T09:02:27.805Z,3.07
2023-03-28T09:03:33.451Z,3.08
2023-03-28T09:04:36.384Z,3.10
2023-03-28T09:06:00.983Z,3.02
2023-03-28T09:07:14.823Z,2.92
2023-03-28T09:08:35.036Z,2.88
2023-03-28T09:09:53.551Z,2.89
2023-03-28T09:11:07.697Z,2.93
2023-03-28T09:12:18.304Z,3.04
2023-03-28T09:13:48.213Z,3.17
2023-03-28T09:15:06.656Z,3.31
2023-03-28T09:16:25.854Z,3.35
2023-03-28T09:17:46.209Z,3.33
2023-03-28T09:19:06.377Z,3.34
2023-03-28T09:20:19.852Z,3.39
2023-03-28T09:21:21.812Z,3.44
2023-03-28T09:22:37.301Z,3.45
2023-03-28T09:24:15.890Z,3.42
2023-03-28T09:25:22.437Z,3.44
2023-03-28T09:26:30.313Z,3.44
2023-03-28T09:27:44.029Z,3.42
2023-03-28T09:28:52.908Z,3.33
2023-03-28T09:29:58.809Z,3.27
2023-03-28T09:31:01.197Z,3.34
2023-03-28T09:32:21.392Z,3.45
2023-03-28T09:33:46.798Z,3.35
2023-03-28T09:34:51.491Z,3.33
2023-03-28T09:35:57.484Z,3.30
2023-03-28T09:37:11.568Z,3.23
2023-03-28T09:38:26.027Z,3.25
2023-03-28T09:39:54.987Z,3.27
2023-03-28T09:41:01.117Z,3.19
2023-03-28T09:42:09.634Z,3.11
2023-03-28T09:43:14.588Z,3.03
2023-03-28T09:44:21.910Z,2.99
2023-03-28T09:45:36.493Z,2.99
2023-03-28T09:46:47.427Z,3.02
2023-03-28T09:47:49.770Z,3.04
2023-03-28T09:48:51.928Z,3.06
2023-03-28T09:50:02.241Z,3.06
2023-03-28T09:51:19.718Z,3.02
2023-03-28T09:52:22.137Z,3.15
2023-03-28T09:53:29.568Z,3.25
2023-03-28T09:54:36.247Z,3.27
2023-03-28T09:55:38.327Z,3.29
2023-03-28T09:56:43.505Z,3.34
2023-03-28T09:58:06.338Z,3.39
2023-03-28T09:59:21.923Z,3.40
2023-03-28T10:00:23.956Z,3.45
2023-03-28T10:01:34.527Z,3.50
2023-03-28T10:02:36.761Z,3.58
2023-03-28T10:03:39.180Z,3.64
2023-03-28T10:04:41.296Z,3.61
2023-03-28T10:05:45.355Z,3.55
2023-03-28T10:06:48.618Z,3.57
2023-03-28T10:07:50.702Z,3.62
2023-03-28T10:08:52.655Z,3.59
2023-03-28T10:09:57.417Z,3.62
2023-03-28T10:11:13.960Z,3.55
2023-03-28T10:12:23.434Z,3.42
2023-03-28T10:13:26.818Z,3.40
2023-03-28T10:14:37.716Z,3.44
2023-03-28T10:15:41.861Z,3.52
2023-03-28T10:16:45.854Z,3.62
2023-03-28T10:17:48.991Z,3.73
2023-03-28T10:18:51.322Z,3.85
2023-03-28T10:19:58.982Z,3.94
2023-03-28T10:21:18.830Z,4.03
2023-03-28T10:22:28.377Z,4.18
2023-03-28T10:23:30.626Z,4.31
2023-03-28T10:24:33.132Z,4.19
2023-03-28T10:25:43.437Z,4.16
2023-03-28T10:26:45.463Z,4.23
2023-03-28T10:27:49.560Z,4.24
2023-03-28T10:28:54.808Z,4.37
2023-03-28T10:29:59.333Z,4.35
2023-03-28T10:31:03.065Z,4.42
2023-03-28T10:32:06.711Z,4.55
2023-03-28T10:33:17.984Z,4.67
2023-03-28T10:34:32.126Z,4.77
2023-03-28T10:35:34.707Z,4.91
2023-03-28T10:36:42.586Z,5.08
2023-03-28T10:37:47.208Z,5.15
2023-03-28T10:38:50.210Z,5.17
2023-03-28T10:40:00.759Z,5.10
2023-03-28T10:41:07.905Z,5.07
2023-03-28T10:42:11.921Z,5.13
2023-03-28T10:43:15.492Z,5.20
2023-03-28T10:44:26.324Z,5.28
2023-03-28T10:45:34.562Z,5.52
2023-03-28T10:46:38.255Z,5.76
2023-03-28T10:47:41.901Z,5.84
2023-03-28T10:48:58.464Z,5.83
2023-03-28T10:50:01.299Z,5.85
2023-03-28T10:51:08.777Z,5.80
2023-03-28T10:52:28.811Z,5.59
2023-03-28T10:53:49.582Z,5.38
2023-03-28T10:55:10.037Z,5.21
2023-03-28T10:56:30.696Z,5.04
2023-03-28T10:57:32.652Z,5.09
2023-03-28T10:59:09.979Z,5.20
2023-03-28T11:00:27.132Z,5.31
2023-03-28T11:01:44.643Z,5.22
2023-03-28T11:03:10.911Z,4.86
2023-03-28T11:04:34.014Z,5.01
2023-03-28T11:06:05.819Z,5.27
2023-03-28T11:07:42.590Z,5.47
2023-03-28T11:09:28.245Z,5.65
2023-03-28T11:10:48.237Z,5.75
2023-03-28T11:12:23.084Z,5.81
2023-03-28T11:13:48.978Z,5.98
2023-03-28T11:15:12.450Z,6.10
2023-03-28T11:16:39.469Z,6.31
2023-03-28T11:17:56.801Z,5.99
2023-03-28T11:19:01.535Z,6.08
2023-03-28T11:20:31.329Z,6.24
2023-03-28T11:22:17.826Z,6.57
2023-03-28T11:23:38.749Z,6.57
2023-03-28T11:24:54.728Z,6.58
2023-03-28T11:26:12.762Z,6.75
2023-03-28T11:27:31.360Z,7.06
2023-03-28T11:29:16.881Z,7.36
2023-03-28T11:30:23.342Z,7.39
2023-03-28T11:31:36.260Z,7.74
2023-03-28T11:32:41.712Z,7.74
2023-03-28T11:34:00.700Z,7.76
2023-03-28T11:35:17.952Z,7.90
2023-03-28T11:36:48.298Z,7.92
2023-03-28T11:37:56.092Z,7.89
2023-03-28T11:39:24.537Z,7.86
2023-03-28T11:40:47.207Z,7.74
2023-03-28T11:41:51.209Z,7.69
2023-03-28T11:43:00.870Z,7.29
2023-03-28T11:44:05.712Z,7.48
2023-03-28T11:45:41.881Z,7.79
2023-03-28T11:46:56.858Z,7.97
2023-03-28T11:48:06.154Z,8.15
2023-03-28T11:49:24.724Z,8.07
2023-03-28T11:50:35.775Z,8.38
2023-03-28T11:51:58.636Z,8.80
2023-03-28T11:53:36.165Z,8.69
2023-03-28T11:54:47.212Z,8.56
2023-03-28T11:56:00.239Z,8.21
2023-03-28T11:57:08.016Z,7.80
2023-03-28T11:58:26.437Z,7.53
2023-03-28T11:59:50.927Z,7.31
2023-03-28T12:01:05.288Z,7.35
2023-03-28T12:02:28.850Z,7.61
2023-03-28T12:03:34.451Z,7.85
2023-03-28T12:04:51.342Z,8.31
2023-03-28T12:06:08.953Z,8.79
2023-03-28T12:07:41.428Z,8.80
2023-03-28T12:08:57.256Z,8.90
2023-03-28T12:10:10.293Z,9.09
2023-03-28T12:11:16.203Z,9.17
2023-03-28T12:12:34.386Z,9.53
2023-03-28T12:13:45.886Z,9.19
2023-03-28T12:14:52.017Z,9.04
2023-03-28T12:15:59.870Z,8.99
2023-03-28T12:17:11.999Z,8.97
2023-03-28T12:18:22.471Z,9.07
2023-03-28T12:19:41.724Z,8.91
2023-03-28T12:21:00.728Z,8.49
2023-03-28T12:22:23.173Z,7.51
2023-03-28T12:23:38.059Z,7.25
2023-03-28T12:24:49.886Z,7.11
2023-03-28T12:25:58.754Z,7.05
2023-03-28T12:27:26.707Z,6.86
2023-03-28T12:28:39.787Z,7.11
2023-03-28T12:30:00.780Z,7.39
2023-03-28T12:31:24.138Z,7.84
2023-03-28T12:32:30.013Z,7.61
2023-03-28T12:33:59.224Z,7.52
2023-03-28T12:35:22.507Z,8.18
2023-03-28T12:36:30.513Z,8.66
2023-03-28T12:37:56.721Z,9.06
2023-03-28T12:39:41.192Z,9.20
2023-03-28T12:41:01.476Z,9.08
2023-03-28T12:42:06.959Z,9.18
2023-03-28T12:43:13.099Z,9.17
2023-03-28T12:44:24.836Z,8.94
2023-03-28T12:45:32.350Z,8.47
2023-03-28T12:46:52.270Z,8.27
2023-03-28T12:48:00.339Z,8.05
2023-03-28T12:49:15.322Z,7.95
2023-03-28T12:50:29.787Z,7.68
2023-03-28T12:51:39.757Z,7.39
2023-03-28T12:52:46.285Z,7.34
2023-03-28T12:54:02.049Z,7.17
2023-03-28T12:55:28.625Z,7.10
2023-03-28T12:56:31.794Z,6.94
2023-03-28T12:57:46.159Z,7.04
2023-03-28T12:58:49.089Z,7.10
2023-03-28T13:00:03.318Z,7.17
2023-03-28T13:01:22.217Z,7.10
2023-03-28T13:02:41.398Z,7.09
2023-03-28T13:04:02.061Z,7.13
2023-03-28T13:05:22.622Z,7.17
2023-03-28T13:06:31.048Z,7.25
2023-03-28T13:08:29.916Z,7.27
2023-03-28T13:09:58.374Z,7.17
2023-03-28T13:11:20.555Z,7.27
2023-03-28T13:12:32.229Z,7.30
2023-03-28T13:13:44.508Z,7.27
2023-03-28T13:15:24.163Z,7.31
2023-03-28T13:16:38.028Z,7.20
2023-03-28T13:18:07.268Z,7.07
2023-03-28T13:19:17.982Z,6.73
2023-03-28T13:20:26.102Z,6.60
2023-03-28T13:21:43.155Z,6.53
2023-03-28T13:22:58.705Z,6.55
2023-03-28T13:24:00.920Z,6.44
2023-03-28T13:25:27.688Z,6.26
2023-03-28T13:27:08.352Z,6.57
2023-03-28T13:28:13.314Z,6.67
2023-03-28T13:29:15.467Z,6.73
2023-03-28T13:30:26.439Z,6.56
2023-03-28T13:31:28.700Z,6.57
2023-03-28T13:32:37.562Z,6.68
2023-03-28T13:33:48.036Z,6.83
2023-03-28T13:35:11.358Z,6.94
2023-03-28T13:36:19.598Z,7.12
2023-03-28T13:37:25.548Z,7.20
2023-03-28T13:38:27.457Z,7.29
2023-03-28T13:39:29.656Z,7.38
2023-03-28T13:40:44.339Z,7.26
2023-03-28T13:41:46.361Z,7.15
2023-03-28T13:42:58.894Z,6.99
2023-03-28T13:44:04.083Z,6.78
2023-03-28T13:45:20.890Z,6.61
2023-03-28T13:46:26.460Z,6.58
2023-03-28T13:47:36.737Z,6.47
2023-03-28T13:49:01.817Z,6.39
2023-03-28T13:50:29.322Z,6.52
2023-03-28T13:51:38.037Z,6.58
2023-03-28T13:52:40.348Z,6.86
2023-03-28T13:53:48.045Z,7.09
2023-03-28T13:54:56.455Z,7.45
2023-03-28T13:56:30.312Z,7.65
2023-03-28T13:57:32.592Z,7.65
2023-03-28T13:58:36.278Z,7.55
2023-03-28T13:59:59.798Z,7.60
2023-03-28T14:01:15.617Z,7.63
2023-03-28T14:02:32.089Z,7.62
2023-03-28T14:03:36.838Z,7.57
2023-03-28T14:04:38.995Z,7.58
2023-03-28T14:05:45.909Z,7.57
2023-03-28T14:06:48.822Z,7.50
2023-03-28T14:07:53.243Z,7.47
2023-03-28T14:08:59.339Z,7.47
2023-03-28T14:10:03.346Z,7.72
2023-03-28T14:11:05.612Z,7.79
2023-03-28T14:12:12.329Z,7.68
2023-03-28T14:13:18.688Z,7.65
2023-03-28T14:14:32.560Z,7.66
2023-03-28T14:15:37.412Z,7.68
2023-03-28T14:16:42.317Z,7.64
2023-03-28T14:17:45.057Z,7.56
2023-03-28T14:18:51.854Z,7.52
2023-03-28T14:19:58.459Z,7.46
2023-03-28T14:21:01.958Z,7.40
2023-03-28T14:22:07.931Z,7.36
2023-03-28T14:23:29.607Z,7.18
2023-03-28T14:24:31.659Z,7.13
2023-03-28T14:25:33.739Z,6.82
2023-03-28T14:26:37.336Z,6.75
2023-03-28T14:27:46.150Z,6.74
2023-03-28T14:28:50.844Z,6.85
2023-03-28T14:29:57.668Z,6.89
2023-03-28T14:31:00.221Z,6.97
2023-03-28T14:32:07.357Z,6.94
2023-03-28T14:33:14.403Z,6.81
2023-03-28T14:34:27.327Z,6.56
2023-03-28T14:35:33.138Z,6.61
2023-03-28T14:36:59.639Z,6.63
2023-03-28T14:38:04.693Z,6.71
2023-03-28T14:39:13.815Z,6.76
2023-03-28T14:40:20.840Z,6.89
2023-03-28T14:41:28.040Z,6.77
2023-03-28T14:42:32.469Z,6.73
2023-03-28T14:43:35.389Z,6.76
2023-03-28T14:44:41.553Z,6.77
2023-03-28T14:45:48.133Z,6.85
2023-03-28T14:46:50.963Z,6.89
2023-03-28T14:47:54.320Z,6.93
2023-03-28T14:49:00.238Z,6.82
2023-03-28T14:50:04.208Z,6.79
2023-03-28T14:51:06.756Z,6.75
2023-03-28T14:52:12.994Z,6.80
2023-03-28T14:53:27.539Z,6.78
2023-03-28T14:54:39.079Z,6.86
2023-03-28T14:55:42.424Z,6.88
2023-03-28T14:56:45.723Z,6.89
2023-03-28T14:57:51.974Z,6.86
2023-03-28T14:59:01.815Z,6.80
2023-03-28T15:00:12.807Z,6.77
2023-03-28T15:01:25.662Z,6.84
2023-03-28T15:02:41.142Z,6.86
2023-03-28T15:03:46.789Z,6.93
2023-03-28T15:04:50.270Z,6.79
2023-03-28T15:05:55.249Z,6.70
2023-03-28T15:06:58.704Z,6.61
2023-03-28T15:08:02.433Z,6.49
2023-03-28T15:09:23.669Z,6.46
2023-03-28T15:10:27.528Z,6.44